ADDS METAR Data INFO
IDs: Format: Raw Decoded Include TAF

Data at: 0341 UTC 19 Jul 2018

KMLB 190253Z 16004KT 10SM CLR 27/24 A3001 RMK AO2 SLP161 T02720239 53007
KMLB 190153Z 17003KT 10SM CLR 28/24 A2999 RMK AO2 SLP153 T02780239
KMLB 190053Z 00000KT 9SM CLR 28/24 A2999 RMK AO2 SLP153 T02780239
KMLB 182353Z 27004KT 10SM CLR 29/24 A2999 RMK AO2 SLP153 60002 T02890239 10350 20278 55007
KMLB 182253Z 26005KT 10SM CLR 29/24 A2997 RMK AO2 SLP148 T02940239
KMLB 182153Z 29006KT 10SM CLR 31/23 A2999 RMK AO2 SLP153 T03060233
KMLB 182053Z 32004KT 10SM CLR 29/23 A3001 RMK AO2 RAE1954 SLP161 P0000 60002 T02940228 58001
KMLB 181953Z 00000KT 10SM -RA SCT055 SCT070 29/23 A3002 RMK AO2 LTG DSNT ALQDS RAB43 TSE1859B09E24 SLP166 P0000 T02890233
KMLB 181949Z 00000KT 10SM -RA SCT055 SCT070 29/23 A3003 RMK AO2 LTG DSNT ALQDS RAB43 TSE1859B09E24 P0000
KMLB 181930Z 29010KT 10SM VCTS FEW050 FEW080 FEW110 29/22 A3002 RMK AO2 LTG DSNT NE-S TSE1859B09E24 T02890222
KMLB 181915Z 28011KT 10SM TS FEW050 SCT080 SCT120 28/23 A3003 RMK AO2 LTG DSNT ALQDS TSE1859B09 T02830228
KMLB 181905Z 28012KT 10SM VCTS FEW050 FEW080 SCT120 28/22 A3002 RMK AO2 LTG DSNT ALQDS TSE1859 T02780222
KMLB 181853Z 29016G25KT 10SM TS FEW032 FEW043 SCT050 28/22 A3001 RMK AO2 PK WND 20026/1822 WSHFT 1831 LTG DSNT N AND NE AND S RAB24E46 TSB31 SLP162 P0002 T02780217
KMLB 181851Z 30017G25KT 10SM TS FEW032 SCT043 BKN055 28/22 A3001 RMK AO2 PK WND 20026/1822 WSHFT 1831 LTG DSNT N AND NE AND S RAB24E46 TSB31 P0002
KMLB 181837Z 29015G24KT 10SM -TSRA FEW033 BKN044 BKN055 29/22 A3001 RMK AO2 PK WND 20026/1822 LTG DSNT SW AND NW RAB24 TSB31 P0002 T02890222
KMLB 181753Z 24011KT 10SM FEW047 34/23 A3001 RMK AO2 LTG DSNT W AND NW RAB25E35 SLP161 VCSH P0000 60000 T03390233 10339 20272 58013
KMLB 181653Z 27007KT 10SM BKN038 BKN060 OVC070 33/23 A3002 RMK AO2 LTG DSNT SW SLP166 T03280233
KMLB 181553Z 22010KT 10SM FEW035 SCT044 33/23 A3004 RMK AO2 SLP171 T03280233
KMLB 181453Z 22009KT 10SM FEW036 32/24 A3005 RMK AO2 SLP174 T03220239 50002
KMLB 181353Z 20010KT 10SM FEW022 31/24 A3005 RMK AO2 SLP176 T03110239
KMLB 181253Z 23007KT 10SM CLR 29/25 A3005 RMK AO2 SLP176 T02890250
KMLB 181153Z 20006KT 10SM CLR 27/24 A3004 RMK AO2 SLP172 70031 T02720244 10272 20256 52005
KMLB 181053Z 21005KT 8SM CLR 26/24 A3004 RMK AO2 SLP171 T02560239
KMLB 180953Z 20006KT 10SM CLR 26/23 A3003 RMK AO2 SLP168 T02560233
KMLB 180853Z AUTO 21005KT 10SM CLR 26/23 A3003 RMK AO2 SLP167 T02560228 58013
KMLB 180753Z AUTO 18005KT 10SM CLR 26/23 A3004 RMK AO2 SLP171 T02560228
KMLB 180653Z AUTO 20006KT 10SM CLR 26/23 A3005 RMK AO2 SLP175 T02560228
KMLB 180553Z AUTO 18005KT 10SM CLR 26/23 A3006 RMK AO2 SLP179 60001 T02560228 10267 20256 56005
KMLB 180453Z AUTO 18005KT 10SM FEW041 26/23 A3007 RMK AO2 SLP181 T02560228 403610250
KMLB 180353Z AUTO 18003KT 10SM CLR 26/23 A3007 RMK AO2 SLP182 T02610233
KMLB 180253Z 18004KT 10SM OVC090 26/24 A3008 RMK AO2 SLP184 60001 T02610239 55000
KMLB 180153Z 00000KT 10SM CLR 27/23 A3006 RMK AO2 RAE10 SLP179 P0000 T02670233
KMLB 180053Z 16004KT 10SM -RA SCT055 SCT070 BKN080 26/23 A3005 RMK AO2 SLP175 P0001 T02610233
KMLB 180004Z 18004KT 9SM -RA FEW100 26/23 A3007 RMK AO2 LTG DSNT NE AND E P0000 T02610233
KMLB 172353Z 12004KT 10SM VCTS -RA FEW100 FEW120 26/22 A3008 RMK AO2 LTG DSNT ALQDS TSE39 SLP184 P0017 60030 T02560222 10361 20250 50021
KMLB 172345Z 01007KT 10SM VCTS -RA FEW120 26/22 A3007 RMK AO2 LTG DSNT ALQDS TSE39 P0017 T02560222
KMLB 172326Z 02004KT 4SM TSRA FEW015 SCT043 BKN120 26/23 A3006 RMK AO2 LTG DSNT ALQDS P0016 T02560228
KMLB 172310Z 36009KT 2 1/2SM +TSRA FEW025 SCT037 OVC050 27/23 A3008 RMK AO2 LTG DSNT ALQDS P0011 T02670233
KMLB 172300Z VRB04KT 4SM +TSRA SCT021 BKN028 OVC039 26/23 A3008 RMK AO2 LTG DSNT ALQDS P0004 T02610228
KMLB 172253Z VRB06KT 3SM +TSRA BKN010 26/23 A3009 RMK AO2 LTG DSNT ALQDS RAB40 TSB00E15B37 PRESRR SLP187 P0013 T02610228
KMLB 172245Z 15013KT 1 3/4SM R09R/5000VP6000FT +TSRA BKN010 26/23 A3007 RMK AO2 LTG DSNT ALQDS RAB40 TSB00E15B37 P0009 T02560228
KMLB 172238Z 19018G22KT 10SM R09R/5000VP6000FT TS BKN010 29/23 A3006 RMK AO2 LTG DSNT ALQDS TSB00E15B37 PRESRR T02890233
KMLB 172221Z 13006KT 10SM VCTS FEW050 FEW065 31/24 A3003 RMK AO2 LTG DSNT ALQDS TSB00E15 T03060244
KMLB 172206Z 12008KT 10SM TS CLR 31/24 A3003 RMK AO2 LTG DSNT ALQDS TSB00 T03060239
KMLB 172153Z 11006KT 10SM VCTS FEW049 30/23 A3002 RMK AO2 WSHFT 2040 LTG DSNT ALQDS RAB2058E22 TSE04B23E45 SLP163 P0000 T03000233
KMLB 172151Z 12006KT 10SM VCTS FEW049 29/23 A3002 RMK AO2 WSHFT 2040 LTG DSNT ALQDS RAB2058E22 TSE04B23E45 P0000
KMLB 172129Z 07008KT 10SM TS FEW025 BKN049 BKN070 29/23 A3004 RMK AO2 WSHFT 2040 LTG DSNT SW-N RAB2058E22 TSE04B23 P0000 T02940233
KMLB 172110Z 07008KT 10SM -RA FEW032 BKN047 OVC070 29/24 A3003 RMK AO2 WSHFT 2040 LTG DSNT N AND NE AND SW RAB2058 TSE04 P0000 T02940239
KMLB 172100Z 01008KT 10SM -TSRA SCT034 BKN047 OVC080 29/23 A3004 RMK AO2 WSHFT 2040 LTG DSNT ALQDS RAB2058 P0000 T02940233
KMLB 172053Z 01011KT 10SM TS BKN050 30/23 A3004 RMK AO2 WSHFT 2039 LTG DSNT ALQDS TSB07E29B33E48B49 SLP172 T03000228 55006
KMLB 172013Z 13014G21KT 10SM TS BKN050 33/24 A3002 RMK AO2 LTG DSNT N AND NW TSB07 T03280239
KMLB 171953Z 14012KT 10SM VCTS BKN055 34/24 A3002 RMK AO2 LTG DSNT SE AND W SLP166 VCSH T03440244
KMLB 171853Z 18009KT 10SM SCT050 35/22 A3004 RMK AO2 SLP172 T03500222
KMLB 171753Z 24009KT 10SM SCT044 36/23 A3006 RMK AO2 SLP178 T03560233 10356 20278 58015
KMLB 171653Z 22009KT 10SM FEW040 FEW050 34/22 A3008 RMK AO2 SLP183 T03390222
KMLB 171553Z 20009KT 10SM FEW033 FEW055 33/22 A3009 RMK AO2 SLP188 T03330222